Sommer S — WDG3830 — position and weather

sailwx.info

Track history (hours):
 
Tides and Currents Weather Stations Pressure Air Temp Water Temp Dewpoint Dewpoint Depression Visibility Wind Speed Wind Dir Waves Ship Positions

Sommer S

Owner: Shaver Transportation Company, Portland, OR. More information available from US FCC via Universal Licensing System and Coast Guard Vessel Documentation Center.

Last reported at 2015-Feb-01 07:28 UTC. Time now 2015-Feb-01 14:47 UTC.
Position N 46°01' W 122°51'.

Length 25 m.

Type: Tug. MMSI: 367530080.

Date/timePositionNaut miles runAvg speedWind from/ knotsBaromVisibWave heightAir tempDewpointWater temp
2015-Feb-01 07:28N 46°01' W 122°51'1 0.4
2015-Feb-01 04:12N 46°02' W 122°52'0 0.0
2015-Feb-01 03:27N 46°02' W 122°52'0 0.0
2015-Feb-01 02:22N 46°02' W 122°52'24 5.9
2015-Jan-31 22:20N 45°38' W 122°47'5 0.8
2015-Jan-31 16:08N 45°34' W 122°44'0 0.1
2015-Jan-31 15:31N 45°34' W 122°43'0 0.2
2015-Jan-31 14:07N 45°34' W 122°44'4 0.8
2015-Jan-31 08:33N 45°38' W 122°42'2 2.0
2015-Jan-31 07:33N 45°39' W 122°44'7 6.5
2015-Jan-31 06:33N 45°45' W 122°46'7 7.3
2015-Jan-31 05:33N 45°52' W 122°47'7 7.2
2015-Jan-31 04:33N 45°59' W 122°51'7 6.9
2015-Jan-31 03:33N 46°05' W 122°55'3 2.7
2015-Jan-31 02:33N 46°07' W 122°59'0 0.0
2015-Jan-31 01:33N 46°07' W 122°59'0 0.0
2015-Jan-31 00:33N 46°07' W 122°59'0 0.0
2015-Jan-30 23:33N 46°07' W 122°59'0 0.0
2015-Jan-30 22:33N 46°07' W 122°59'0 0.0
2015-Jan-30 21:33N 46°07' W 122°59'0 0.0
2015-Jan-30 05:33N 46°07' W 122°59'0 0.1
2015-Jan-30 04:27N 46°07' W 122°58'3 0.4
2015-Jan-29 22:33N 46°05' W 122°55'2 1.8
2015-Jan-29 21:33N 46°06' W 122°58'2 1.5
2015-Jan-29 20:33N 46°05' W 122°56'0 0.0
2015-Jan-29 19:33N 46°05' W 122°56'0 0.0
2015-Jan-29 18:33N 46°05' W 122°56'0 0.0
2015-Jan-29 17:33N 46°05' W 122°56'0 0.0
2015-Jan-29 16:33N 46°05' W 122°56'0 0.0
2015-Jan-29 15:33N 46°05' W 122°56'0 0.0
2015-Jan-29 14:33N 46°05' W 122°56'0 0.0
2015-Jan-29 13:33N 46°05' W 122°56'0 0.0
2015-Jan-29 12:33N 46°05' W 122°56'0 0.0
2015-Jan-29 11:33N 46°05' W 122°56'2 2.3
2015-Jan-29 10:33N 46°04' W 122°53'0 0.2
2015-Jan-29 09:33N 46°04' W 122°53'0 0.4
2015-Jan-29 08:33N 46°03' W 122°53'8 8.4
2015-Jan-29 07:33N 45°56' W 122°48'1312.6
2015-Jan-29 06:33N 45°43' W 122°46'7 7.1
2015-Jan-29 05:33N 45°36' W 122°47'3 3.0
2015-Jan-29 04:33N 45°39' W 122°45'0 0.4
2015-Jan-29 03:33N 45°39' W 122°45'0 0.0
2015-Jan-29 02:33N 45°39' W 122°45'0 0.2
2015-Jan-29 01:33N 45°39' W 122°45'9 8.8
2015-Jan-29 00:33N 45°47' W 122°47'8 8.4
2015-Jan-28 23:33N 45°56' W 122°48'7 6.5
2015-Jan-28 22:33N 46°02' W 122°53'0 0.1
2015-Jan-28 21:33N 46°02' W 122°53'0 0.0
2015-Jan-28 20:33N 46°02' W 122°53'0 0.0
2015-Jan-28 19:33N 46°02' W 122°53'0 0.0
2015-Jan-28 18:33N 46°02' W 122°53'0 0.0
2015-Jan-28 17:33N 46°02' W 122°53'0 0.0
2015-Jan-28 16:33N 46°02' W 122°53'0 0.4
2015-Jan-28 15:33N 46°02' W 122°52'1 1.1
2015-Jan-28 14:33N 46°03' W 122°53'3 3.5
2015-Jan-28 13:33N 46°05' W 122°56'0 0.0
2015-Jan-28 12:33N 46°05' W 122°56'0 0.0
2015-Jan-28 11:33N 46°05' W 122°56'0 0.0
2015-Jan-28 10:33N 46°05' W 122°56'0 0.0
2015-Jan-28 09:33N 46°05' W 122°56'0 0.0
2015-Jan-28 08:33N 46°05' W 122°56'0 0.4
2015-Jan-28 07:33N 46°06' W 122°56'0 0.5
2015-Jan-28 06:33N 46°06' W 122°57'0 0.1
2015-Jan-28 05:33N 46°06' W 122°57'0 0.0
2015-Jan-28 04:33N 46°06' W 122°57'0 0.0
2015-Jan-28 03:33N 46°06' W 122°57'0 0.1
2015-Jan-28 02:33N 46°06' W 122°57'0 0.5
2015-Jan-28 01:33N 46°06' W 122°56'0 0.0
2015-Jan-28 00:33N 46°06' W 122°56'0 0.0
2015-Jan-27 23:33N 46°06' W 122°56'0 0.0
2015-Jan-27 22:33N 46°06' W 122°56'3 2.7
2015-Jan-27 21:33N 46°04' W 122°54'6 5.9
2015-Jan-27 20:33N 45°59' W 122°50'0 0.2
2015-Jan-27 19:33N 45°59' W 122°50'3 2.9
2015-Jan-27 18:33N 46°01' W 122°52'5 4.7
2015-Jan-27 17:33N 46°05' W 122°56'0 0.0
2015-Jan-27 16:33N 46°05' W 122°56'0 0.0
2015-Jan-27 15:33N 46°05' W 122°56'0 0.0
2015-Jan-27 14:33N 46°05' W 122°56'0 0.0
2015-Jan-27 13:33N 46°05' W 122°56'0 0.0
2015-Jan-27 12:33N 46°05' W 122°56'0 0.0
2015-Jan-27 11:33N 46°05' W 122°56'0 0.0
2015-Jan-27 10:33N 46°05' W 122°56'0 0.0
2015-Jan-27 09:33N 46°05' W 122°56'0 0.0
2015-Jan-27 08:33N 46°05' W 122°56'0 0.0
2015-Jan-27 07:33N 46°05' W 122°56'1 0.8
2015-Jan-27 06:33N 46°06' W 122°57'0 0.1
2015-Jan-27 05:33N 46°06' W 122°57'0 0.0
2015-Jan-27 04:33N 46°06' W 122°57'0 0.0
2015-Jan-27 03:33N 46°06' W 122°57'0 0.3
2015-Jan-27 02:33N 46°06' W 122°56'1 0.7
2015-Jan-27 01:33N 46°05' W 122°56'0 0.3
2015-Jan-27 00:33N 46°05' W 122°56'0 0.0
2015-Jan-26 23:33N 46°05' W 122°56'0 0.0
2015-Jan-26 22:33N 46°05' W 122°56'0 0.0
2015-Jan-26 21:33N 46°05' W 122°56'0 0.0
2015-Jan-26 20:33N 46°05' W 122°56'0 0.0
2015-Jan-26 19:33N 46°05' W 122°56'0 0.0
2015-Jan-26 18:33N 46°05' W 122°56'5 4.5
2015-Jan-26 17:33N 46°02' W 122°52'0 0.0
2015-Jan-26 16:33N 46°02' W 122°52'0 0.0
2015-Jan-26 15:33N 46°02' W 122°52'0 0.0
2015-Jan-26 14:33N 46°02' W 122°52'0 0.0
2015-Jan-26 13:33N 46°02' W 122°52'0 0.0
2015-Jan-26 12:33N 46°02' W 122°52'0 0.1
2015-Jan-26 11:33N 46°02' W 122°52'1 1.0
2015-Jan-26 10:33N 46°02' W 122°53'0 0.3
2015-Jan-26 09:33N 46°03' W 122°53'0 0.0
2015-Jan-26 08:33N 46°03' W 122°53'0 0.0
2015-Jan-26 07:33N 46°03' W 122°53'0 0.0
2015-Jan-26 06:33N 46°03' W 122°53'0 0.0
2015-Jan-26 05:33N 46°03' W 122°53'4 3.6
2015-Jan-26 04:33N 46°05' W 122°56'0 0.0
2015-Jan-26 03:33N 46°05' W 122°56'1 0.9
2015-Jan-26 02:33N 46°06' W 122°57'2 2.1
2015-Jan-26 01:33N 46°07' W 122°59'1 0.7
2015-Jan-26 00:34N 46°07' W 122°58'7 6.7
2015-Jan-25 23:33N 46°02' W 122°52'0 0.1
2015-Jan-25 22:33N 46°02' W 122°52'0 0.0
2015-Jan-25 21:33N 46°02' W 122°52'0 0.3
2015-Jan-25 20:33N 46°02' W 122°52'1 1.0
2015-Jan-25 19:33N 46°03' W 122°53'1 1.1
2015-Jan-25 18:33N 46°02' W 122°52'0 0.1
2015-Jan-25 17:33N 46°02' W 122°52'0 0.0
2015-Jan-25 16:33N 46°02' W 122°52'1 1.2
2015-Jan-25 15:33N 46°03' W 122°53'0 0.0
2015-Jan-25 14:33N 46°03' W 122°53'0 0.0
2015-Jan-25 13:33N 46°03' W 122°53'0 0.0
2015-Jan-25 12:33N 46°03' W 122°53'0 0.0
2015-Jan-25 11:33N 46°03' W 122°53'0 0.0
2015-Jan-25 10:33N 46°03' W 122°53'3 2.7
2015-Jan-25 09:33N 46°00' W 122°51'1211.8
2015-Jan-25 08:33N 45°49' W 122°48'1110.8
2015-Jan-25 07:33N 45°38' W 122°47'2 2.0
2015-Jan-25 06:33N 45°36' W 122°47'0 0.2
2015-Jan-25 05:33N 45°36' W 122°47'5 5.4
2015-Jan-25 04:33N 45°32' W 122°41'2 1.5
2015-Jan-25 03:33N 45°33' W 122°42'1 1.0
2015-Jan-25 02:33N 45°34' W 122°44'0 0.0
2015-Jan-25 01:33N 45°34' W 122°44'5 4.9
2015-Jan-25 00:33N 45°38' W 122°47'2 1.9
2015-Jan-24 23:33N 45°39' W 122°45'4 3.5
2015-Jan-24 22:33N 45°35' W 122°46'2 2.3
2015-Jan-24 21:33N 45°34' W 122°43'3 3.5
2015-Jan-24 20:33N 45°36' W 122°47'1 0.9
2015-Jan-24 19:33N 45°37' W 122°47'2 2.4
2015-Jan-24 18:33N 45°35' W 122°46'4 3.9
2015-Jan-24 17:33N 45°33' W 122°41'7 6.9
2015-Jan-24 16:33N 45°38' W 122°47'3 3.4
2015-Jan-24 15:33N 45°38' W 122°42'0 0.1
2015-Jan-24 14:33N 45°38' W 122°42'1 1.0
2015-Jan-24 13:33N 45°38' W 122°43'1 1.2
2015-Jan-24 12:33N 45°39' W 122°45'0 0.0
2015-Jan-24 11:33N 45°39' W 122°45'0 0.0
2015-Jan-24 10:33N 45°39' W 122°45'0 0.0
2015-Jan-24 09:33N 45°39' W 122°45'0 0.0
2015-Jan-24 08:33N 45°39' W 122°45'0 0.0
2015-Jan-24 07:33N 45°39' W 122°45'0 0.0
2015-Jan-24 06:33N 45°39' W 122°45'1 1.2
2015-Jan-24 05:33N 45°38' W 122°43'1 0.9
2015-Jan-24 04:33N 45°39' W 122°45'0 0.0
2015-Jan-24 03:33N 45°39' W 122°45'0 0.0
2015-Jan-24 02:33N 45°39' W 122°45'2 2.3
2015-Jan-24 01:33N 45°38' W 122°42'2 1.5
2015-Jan-24 00:33N 45°38' W 122°44'0 0.0
2015-Jan-23 23:33N 45°38' W 122°44'0 0.0
2015-Jan-23 22:33N 45°38' W 122°44'1 1.3
2015-Jan-23 21:33N 45°39' W 122°45'0 0.2
2015-Jan-23 20:33N 45°39' W 122°46'0 0.0
2015-Jan-23 19:33N 45°39' W 122°46'0 0.4
2015-Jan-23 18:33N 45°39' W 122°45'0 0.0
2015-Jan-23 17:33N 45°39' W 122°45'0 0.0
2015-Jan-23 16:33N 45°39' W 122°45'0 0.4
2015-Jan-23 15:33N 45°39' W 122°46'1 0.8
2015-Jan-23 14:33N 45°39' W 122°47'1 0.9
2015-Jan-23 13:33N 45°39' W 122°46'1 0.5
2015-Jan-23 12:33N 45°39' W 122°45'1 1.5
2015-Jan-23 11:33N 45°38' W 122°47'3 3.3
2015-Jan-23 10:33N 45°35' W 122°46'3 3.4
2015-Jan-23 09:33N 45°38' W 122°47'3 2.7
2015-Jan-23 08:33N 45°36' W 122°46'3 2.9
2015-Jan-23 07:33N 45°34' W 122°43'6 5.6
2015-Jan-23 06:33N 45°39' W 122°46'1 0.7
2015-Jan-23 05:33N 45°39' W 122°45'0 0.0
2015-Jan-23 04:33N 45°39' W 122°45'0 0.0
2015-Jan-23 03:33N 45°39' W 122°45'0 0.0
2015-Jan-23 02:33N 45°39' W 122°45'1 0.7
2015-Jan-23 01:33N 45°39' W 122°46'0 0.3
2015-Jan-23 00:33N 45°39' W 122°45'6 6.0
2015-Jan-22 23:33N 45°34' W 122°44'3 2.9
2015-Jan-22 22:33N 45°36' W 122°46'3 2.9
2015-Jan-22 21:33N 45°34' W 122°44'0 0.0
2015-Jan-22 20:33N 45°34' W 122°44'0 0.0
2015-Jan-22 19:33N 45°34' W 122°44'0 0.0
2015-Jan-22 18:33N 45°34' W 122°44'3 3.4
2015-Jan-22 17:33N 45°36' W 122°47'0 0.0
2015-Jan-22 16:33N 45°36' W 122°47'0 0.0
2015-Jan-22 15:33N 45°36' W 122°47'0 0.0
2015-Jan-22 14:33N 45°36' W 122°47'0 0.0
2015-Jan-22 13:33N 45°36' W 122°47'1 0.6
2015-Jan-22 12:33N 45°36' W 122°47'4 3.5
2015-Jan-22 11:33N 45°39' W 122°46'0 0.5
2015-Jan-22 10:33N 45°39' W 122°45'0 0.0
2015-Jan-22 09:33N 45°39' W 122°45'0 0.0
2015-Jan-22 08:33N 45°39' W 122°45'1 1.0
2015-Jan-22 07:33N 45°39' W 122°44'  
Track history (hours):
 
Tides and Currents Weather Stations Pressure Air Temp Water Temp Dewpoint Dewpoint Depression Visibility Wind Speed Wind Dir Waves Ship Positions

Sommer S

Owner: Shaver Transportation Company, Portland, OR. More information available from US FCC via Universal Licensing System and Coast Guard Vessel Documentation Center.

Last reported at 2015-Feb-01 07:28 UTC. Time now 2015-Feb-01 14:47 UTC.
Position N 46°01' W 122°51'.

Length 25 m.

Type: Tug. MMSI: 367530080.

Date/timePositionNaut miles runAvg speedWind from/ knotsBaromVisibWave heightAir tempDewpointWater temp
2015-Feb-01 07:28N 46°01' W 122°51'1 0.4
2015-Feb-01 04:12N 46°02' W 122°52'0 0.0
2015-Feb-01 03:27N 46°02' W 122°52'0 0.0
2015-Feb-01 02:22N 46°02' W 122°52'24 5.9
2015-Jan-31 22:20N 45°38' W 122°47'5 0.8
2015-Jan-31 16:08N 45°34' W 122°44'0 0.1
2015-Jan-31 15:31N 45°34' W 122°43'0 0.2
2015-Jan-31 14:07N 45°34' W 122°44'4 0.8
2015-Jan-31 08:33N 45°38' W 122°42'2 2.0
2015-Jan-31 07:33N 45°39' W 122°44'7 6.5
2015-Jan-31 06:33N 45°45' W 122°46'7 7.3
2015-Jan-31 05:33N 45°52' W 122°47'7 7.2
2015-Jan-31 04:33N 45°59' W 122°51'7 6.9
2015-Jan-31 03:33N 46°05' W 122°55'3 2.7
2015-Jan-31 02:33N 46°07' W 122°59'0 0.0
2015-Jan-31 01:33N 46°07' W 122°59'0 0.0
2015-Jan-31 00:33N 46°07' W 122°59'0 0.0
2015-Jan-30 23:33N 46°07' W 122°59'0 0.0
2015-Jan-30 22:33N 46°07' W 122°59'0 0.0
2015-Jan-30 21:33N 46°07' W 122°59'0 0.0
2015-Jan-30 05:33N 46°07' W 122°59'0 0.1
2015-Jan-30 04:27N 46°07' W 122°58'3 0.4
2015-Jan-29 22:33N 46°05' W 122°55'2 1.8
2015-Jan-29 21:33N 46°06' W 122°58'2 1.5
2015-Jan-29 20:33N 46°05' W 122°56'0 0.0
2015-Jan-29 19:33N 46°05' W 122°56'0 0.0
2015-Jan-29 18:33N 46°05' W 122°56'0 0.0
2015-Jan-29 17:33N 46°05' W 122°56'0 0.0
2015-Jan-29 16:33N 46°05' W 122°56'0 0.0
2015-Jan-29 15:33N 46°05' W 122°56'0 0.0
2015-Jan-29 14:33N 46°05' W 122°56'0 0.0
2015-Jan-29 13:33N 46°05' W 122°56'0 0.0
2015-Jan-29 12:33N 46°05' W 122°56'0 0.0
2015-Jan-29 11:33N 46°05' W 122°56'2 2.3
2015-Jan-29 10:33N 46°04' W 122°53'0 0.2
2015-Jan-29 09:33N 46°04' W 122°53'0 0.4
2015-Jan-29 08:33N 46°03' W 122°53'8 8.4
2015-Jan-29 07:33N 45°56' W 122°48'1312.6
2015-Jan-29 06:33N 45°43' W 122°46'7 7.1
2015-Jan-29 05:33N 45°36' W 122°47'3 3.0
2015-Jan-29 04:33N 45°39' W 122°45'0 0.4
2015-Jan-29 03:33N 45°39' W 122°45'0 0.0
2015-Jan-29 02:33N 45°39' W 122°45'0 0.2
2015-Jan-29 01:33N 45°39' W 122°45'9 8.8
2015-Jan-29 00:33N 45°47' W 122°47'8 8.4
2015-Jan-28 23:33N 45°56' W 122°48'7 6.5
2015-Jan-28 22:33N 46°02' W 122°53'0 0.1
2015-Jan-28 21:33N 46°02' W 122°53'0 0.0
2015-Jan-28 20:33N 46°02' W 122°53'0 0.0
2015-Jan-28 19:33N 46°02' W 122°53'0 0.0
2015-Jan-28 18:33N 46°02' W 122°53'0 0.0
2015-Jan-28 17:33N 46°02' W 122°53'0 0.0
2015-Jan-28 16:33N 46°02' W 122°53'0 0.4
2015-Jan-28 15:33N 46°02' W 122°52'1 1.1
2015-Jan-28 14:33N 46°03' W 122°53'3 3.5
2015-Jan-28 13:33N 46°05' W 122°56'0 0.0
2015-Jan-28 12:33N 46°05' W 122°56'0 0.0
2015-Jan-28 11:33N 46°05' W 122°56'0 0.0
2015-Jan-28 10:33N 46°05' W 122°56'0 0.0
2015-Jan-28 09:33N 46°05' W 122°56'0 0.0
2015-Jan-28 08:33N 46°05' W 122°56'0 0.4
2015-Jan-28 07:33N 46°06' W 122°56'0 0.5
2015-Jan-28 06:33N 46°06' W 122°57'0 0.1
2015-Jan-28 05:33N 46°06' W 122°57'0 0.0
2015-Jan-28 04:33N 46°06' W 122°57'0 0.0
2015-Jan-28 03:33N 46°06' W 122°57'0 0.1
2015-Jan-28 02:33N 46°06' W 122°57'0 0.5
2015-Jan-28 01:33N 46°06' W 122°56'0 0.0
2015-Jan-28 00:33N 46°06' W 122°56'0 0.0
2015-Jan-27 23:33N 46°06' W 122°56'0 0.0
2015-Jan-27 22:33N 46°06' W 122°56'3 2.7
2015-Jan-27 21:33N 46°04' W 122°54'6 5.9
2015-Jan-27 20:33N 45°59' W 122°50'0 0.2
2015-Jan-27 19:33N 45°59' W 122°50'3 2.9
2015-Jan-27 18:33N 46°01' W 122°52'5 4.7
2015-Jan-27 17:33N 46°05' W 122°56'0 0.0
2015-Jan-27 16:33N 46°05' W 122°56'0 0.0
2015-Jan-27 15:33N 46°05' W 122°56'0 0.0
2015-Jan-27 14:33N 46°05' W 122°56'0 0.0
2015-Jan-27 13:33N 46°05' W 122°56'0 0.0
2015-Jan-27 12:33N 46°05' W 122°56'0 0.0
2015-Jan-27 11:33N 46°05' W 122°56'0 0.0
2015-Jan-27 10:33N 46°05' W 122°56'0 0.0
2015-Jan-27 09:33N 46°05' W 122°56'0 0.0
2015-Jan-27 08:33N 46°05' W 122°56'0 0.0
2015-Jan-27 07:33N 46°05' W 122°56'1 0.8
2015-Jan-27 06:33N 46°06' W 122°57'0 0.1
2015-Jan-27 05:33N 46°06' W 122°57'0 0.0
2015-Jan-27 04:33N 46°06' W 122°57'0 0.0
2015-Jan-27 03:33N 46°06' W 122°57'0 0.3
2015-Jan-27 02:33N 46°06' W 122°56'1 0.7
2015-Jan-27 01:33N 46°05' W 122°56'0 0.3
2015-Jan-27 00:33N 46°05' W 122°56'0 0.0
2015-Jan-26 23:33N 46°05' W 122°56'0 0.0
2015-Jan-26 22:33N 46°05' W 122°56'0 0.0
2015-Jan-26 21:33N 46°05' W 122°56'0 0.0
2015-Jan-26 20:33N 46°05' W 122°56'0 0.0
2015-Jan-26 19:33N 46°05' W 122°56'0 0.0
2015-Jan-26 18:33N 46°05' W 122°56'5 4.5
2015-Jan-26 17:33N 46°02' W 122°52'0 0.0
2015-Jan-26 16:33N 46°02' W 122°52'0 0.0
2015-Jan-26 15:33N 46°02' W 122°52'0 0.0
2015-Jan-26 14:33N 46°02' W 122°52'0 0.0
2015-Jan-26 13:33N 46°02' W 122°52'0 0.0
2015-Jan-26 12:33N 46°02' W 122°52'0 0.1
2015-Jan-26 11:33N 46°02' W 122°52'1 1.0
2015-Jan-26 10:33N 46°02' W 122°53'0 0.3
2015-Jan-26 09:33N 46°03' W 122°53'0 0.0
2015-Jan-26 08:33N 46°03' W 122°53'0 0.0
2015-Jan-26 07:33N 46°03' W 122°53'0 0.0
2015-Jan-26 06:33N 46°03' W 122°53'0 0.0
2015-Jan-26 05:33N 46°03' W 122°53'4 3.6
2015-Jan-26 04:33N 46°05' W 122°56'0 0.0
2015-Jan-26 03:33N 46°05' W 122°56'1 0.9
2015-Jan-26 02:33N 46°06' W 122°57'2 2.1
2015-Jan-26 01:33N 46°07' W 122°59'1 0.7
2015-Jan-26 00:34N 46°07' W 122°58'7 6.7
2015-Jan-25 23:33N 46°02' W 122°52'0 0.1
2015-Jan-25 22:33N 46°02' W 122°52'0 0.0
2015-Jan-25 21:33N 46°02' W 122°52'0 0.3
2015-Jan-25 20:33N 46°02' W 122°52'1 1.0
2015-Jan-25 19:33N 46°03' W 122°53'1 1.1
2015-Jan-25 18:33N 46°02' W 122°52'0 0.1
2015-Jan-25 17:33N 46°02' W 122°52'0 0.0
2015-Jan-25 16:33N 46°02' W 122°52'1 1.2
2015-Jan-25 15:33N 46°03' W 122°53'0 0.0
2015-Jan-25 14:33N 46°03' W 122°53'0 0.0
2015-Jan-25 13:33N 46°03' W 122°53'0 0.0
2015-Jan-25 12:33N 46°03' W 122°53'0 0.0
2015-Jan-25 11:33N 46°03' W 122°53'0 0.0
2015-Jan-25 10:33N 46°03' W 122°53'3 2.7
2015-Jan-25 09:33N 46°00' W 122°51'1211.8
2015-Jan-25 08:33N 45°49' W 122°48'1110.8
2015-Jan-25 07:33N 45°38' W 122°47'2 2.0
2015-Jan-25 06:33N 45°36' W 122°47'0 0.2
2015-Jan-25 05:33N 45°36' W 122°47'5 5.4
2015-Jan-25 04:33N 45°32' W 122°41'2 1.5
2015-Jan-25 03:33N 45°33' W 122°42'1 1.0
2015-Jan-25 02:33N 45°34' W 122°44'0 0.0
2015-Jan-25 01:33N 45°34' W 122°44'5 4.9
2015-Jan-25 00:33N 45°38' W 122°47'2 1.9
2015-Jan-24 23:33N 45°39' W 122°45'4 3.5
2015-Jan-24 22:33N 45°35' W 122°46'2 2.3
2015-Jan-24 21:33N 45°34' W 122°43'3 3.5
2015-Jan-24 20:33N 45°36' W 122°47'1 0.9
2015-Jan-24 19:33N 45°37' W 122°47'2 2.4
2015-Jan-24 18:33N 45°35' W 122°46'4 3.9
2015-Jan-24 17:33N 45°33' W 122°41'7 6.9
2015-Jan-24 16:33N 45°38' W 122°47'3 3.4
2015-Jan-24 15:33N 45°38' W 122°42'0 0.1
2015-Jan-24 14:33N 45°38' W 122°42'1 1.0
2015-Jan-24 13:33N 45°38' W 122°43'1 1.2
2015-Jan-24 12:33N 45°39' W 122°45'0 0.0
2015-Jan-24 11:33N 45°39' W 122°45'0 0.0
2015-Jan-24 10:33N 45°39' W 122°45'0 0.0
2015-Jan-24 09:33N 45°39' W 122°45'0 0.0
2015-Jan-24 08:33N 45°39' W 122°45'0 0.0
2015-Jan-24 07:33N 45°39' W 122°45'0 0.0
2015-Jan-24 06:33N 45°39' W 122°45'1 1.2
2015-Jan-24 05:33N 45°38' W 122°43'1 0.9
2015-Jan-24 04:33N 45°39' W 122°45'0 0.0
2015-Jan-24 03:33N 45°39' W 122°45'0 0.0
2015-Jan-24 02:33N 45°39' W 122°45'2 2.3
2015-Jan-24 01:33N 45°38' W 122°42'2 1.5
2015-Jan-24 00:33N 45°38' W 122°44'0 0.0
2015-Jan-23 23:33N 45°38' W 122°44'0 0.0
2015-Jan-23 22:33N 45°38' W 122°44'1 1.3
2015-Jan-23 21:33N 45°39' W 122°45'0 0.2
2015-Jan-23 20:33N 45°39' W 122°46'0 0.0
2015-Jan-23 19:33N 45°39' W 122°46'0 0.4
2015-Jan-23 18:33N 45°39' W 122°45'0 0.0
2015-Jan-23 17:33N 45°39' W 122°45'0 0.0
2015-Jan-23 16:33N 45°39' W 122°45'0 0.4
2015-Jan-23 15:33N 45°39' W 122°46'1 0.8
2015-Jan-23 14:33N 45°39' W 122°47'1 0.9
2015-Jan-23 13:33N 45°39' W 122°46'1 0.5
2015-Jan-23 12:33N 45°39' W 122°45'1 1.5
2015-Jan-23 11:33N 45°38' W 122°47'3 3.3
2015-Jan-23 10:33N 45°35' W 122°46'3 3.4
2015-Jan-23 09:33N 45°38' W 122°47'3 2.7
2015-Jan-23 08:33N 45°36' W 122°46'3 2.9
2015-Jan-23 07:33N 45°34' W 122°43'6 5.6
2015-Jan-23 06:33N 45°39' W 122°46'1 0.7
2015-Jan-23 05:33N 45°39' W 122°45'0 0.0
2015-Jan-23 04:33N 45°39' W 122°45'0 0.0
2015-Jan-23 03:33N 45°39' W 122°45'0 0.0
2015-Jan-23 02:33N 45°39' W 122°45'1 0.7
2015-Jan-23 01:33N 45°39' W 122°46'0 0.3
2015-Jan-23 00:33N 45°39' W 122°45'6 6.0
2015-Jan-22 23:33N 45°34' W 122°44'3 2.9
2015-Jan-22 22:33N 45°36' W 122°46'3 2.9
2015-Jan-22 21:33N 45°34' W 122°44'0 0.0
2015-Jan-22 20:33N 45°34' W 122°44'0 0.0
2015-Jan-22 19:33N 45°34' W 122°44'0 0.0
2015-Jan-22 18:33N 45°34' W 122°44'3 3.4
2015-Jan-22 17:33N 45°36' W 122°47'0 0.0
2015-Jan-22 16:33N 45°36' W 122°47'0 0.0
2015-Jan-22 15:33N 45°36' W 122°47'0 0.0
2015-Jan-22 14:33N 45°36' W 122°47'0 0.0
2015-Jan-22 13:33N 45°36' W 122°47'1 0.6
2015-Jan-22 12:33N 45°36' W 122°47'4 3.5
2015-Jan-22 11:33N 45°39' W 122°46'0 0.5
2015-Jan-22 10:33N 45°39' W 122°45'0 0.0
2015-Jan-22 09:33N 45°39' W 122°45'0 0.0
2015-Jan-22 08:33N 45°39' W 122°45'1 1.0
2015-Jan-22 07:33N 45°39' W 122°44'  

Dump ship's entire track history